Capel Saint Mary, United Kingdom
Current Conditions -  °F | °C
As of 5:50 PM on Friday 24 Oct 2014 (Local Time) from EGUW Reporting Station
Broken Clouds Broken Clouds  
Wind Chill: 59°   Ceiling: 7000
Heat Index: 59°   Visibility: 6mi
Dew Point: 57°   Wind: 8mph
Humidity: 94%   Direction: 180°S
Pressure: 29.88"   Gusts: NA
Location:  52°N, 1.04°E
Report Text: EGUW 241650Z AUTO 18007KT 9999 SCT031/// BKN070/// BKN170/// 15/14 Q1012
Loading
Personal Weather Stations






























Interactive Weather Map
Tropical Storm Tracking
New forecast layout! Learn more

10-Day Weather Forecast

Advertisements
Track Severe Weather on mobile